Time;durP1;ratioP1;P1;durP2;ratioP2;P2;SDS_P1;SDS_P2;PMS_P1;PMS_P2;Temp;Humidity;BMP_temperature;BMP_pressure;BME280_temperature;BME280_humidity;BME280_pressure;Samples;Min_cycle;Max_cycle;Signal;HPM_P1;HPM_P2
2021/06/02 00:00:04;;;;;;;40.72;37.63;;;;;;;10.07;100.00;101254.41;4973744;28;20043;-87
2021/06/02 00:02:33;;;;;;;37.72;34.95;;;;;;;10.06;100.00;101254.63;4974659;28;20440;-87
2021/06/02 00:05:03;;;;;;;39.17;36.33;;;;;;;9.98;100.00;101252.09;4969631;28;20042;-86
2021/06/02 00:07:34;;;;;;;37.88;35.28;;;;;;;10.00;100.00;101250.06;4974714;28;20050;-86
2021/06/02 00:10:02;;;;;;;39.70;36.97;;;;;;;9.97;100.00;101253.91;4980640;28;20137;-86
2021/06/02 00:12:32;;;;;;;37.95;35.45;;;;;;;9.91;100.00;101246.72;4973209;28;20061;-86
2021/06/02 00:15:02;;;;;;;42.63;39.75;;;;;;;9.88;100.00;101240.97;4968535;28;20058;-86
2021/06/02 00:17:29;;;;;;;43.67;41.08;;;;;;;10.10;100.00;101242.59;4978963;28;20054;-87
2021/06/02 00:19:59;;;;;;;40.67;38.17;;;;;;;10.06;100.00;101246.66;4961270;28;20046;-86
2021/06/02 00:22:27;;;;;;;41.40;38.60;;;;;;;9.96;100.00;101240.84;4960109;28;20051;-87
2021/06/02 00:24:54;;;;;;;37.33;34.42;;;;;;;9.94;100.00;101241.03;4976816;28;20081;-87
2021/06/02 00:27:25;;;;;;;37.58;34.67;;;;;;;10.00;100.00;101242.94;4989200;28;20097;-86
2021/06/02 00:29:53;;;;;;;37.90;35.20;;;;;;;9.88;100.00;101244.44;4967563;28;20046;-85
2021/06/02 00:32:21;;;;;;;37.40;34.70;;;;;;;9.96;100.00;101244.31;4982256;28;20051;-87
2021/06/02 00:34:48;;;;;;;39.40;36.47;;;;;;;10.09;100.00;101249.75;4976553;28;20055;-86
2021/06/02 00:37:19;;;;;;;37.42;34.53;;;;;;;10.34;100.00;101251.22;4984665;28;20058;-87
2021/06/02 00:39:51;;;;;;;37.80;34.90;;;;;;;10.01;100.00;101249.06;4948157;29;20051;-87
2021/06/02 00:42:29;;;;;;;37.42;34.53;;;;;;;10.12;100.00;101253.88;4960920;28;20046;-87
2021/06/02 00:44:56;;;;;;;37.92;35.03;;;;;;;10.06;100.00;101259.94;4952768;28;20071;-88
2021/06/02 00:47:23;;;;;;;39.35;36.35;;;;;;;9.97;100.00;101251.25;4953550;28;20110;-89
2021/06/02 00:49:56;;;;;;;41.80;38.60;;;;;;;9.98;100.00;101257.38;4972589;28;20501;-88
2021/06/02 00:52:31;;;;;;;40.50;37.25;;;;;;;9.91;100.00;101259.97;4944355;28;20110;-87
2021/06/02 00:55:11;;;;;;;38.95;35.95;;;;;;;10.00;100.00;101250.88;4956654;28;20047;-88
2021/06/02 00:57:45;;;;;;;44.15;40.95;;;;;;;10.01;100.00;101254.34;4959374;28;20053;-87
2021/06/02 01:00:13;;;;;;;43.83;40.53;;;;;;;9.95;100.00;101260.41;4959328;28;20051;-87
2021/06/02 01:02:48;;;;;;;39.25;36.35;;;;;;;10.11;100.00;101256.72;4947190;28;20058;-87
2021/06/02 01:05:17;;;;;;;35.88;33.17;;;;;;;9.96;100.00;101254.13;4953452;28;20047;-88
2021/06/02 01:07:51;;;;;;;37.30;34.50;;;;;;;10.08;100.00;101255.25;4953463;28;20456;-88
2021/06/02 01:10:19;;;;;;;36.53;33.72;;;;;;;10.20;100.00;101261.72;4971196;28;20046;-88
2021/06/02 01:12:49;;;;;;;34.72;31.92;;;;;;;10.01;100.00;101259.66;4966254;28;20063;-88
2021/06/02 01:15:18;;;;;;;33.60;31.05;;;;;;;10.02;100.00;101254.19;4952308;28;20493;-87
2021/06/02 01:17:45;;;;;;;35.95;33.25;;;;;;;9.92;100.00;101253.66;4962424;28;20046;-87
2021/06/02 01:20:15;;;;;;;35.45;32.65;;;;;;;10.07;100.00;101254.41;4959806;28;20046;-88
2021/06/02 01:22:48;;;;;;;36.50;33.70;;;;;;;10.00;100.00;101255.38;4952442;28;20059;-89
2021/06/02 01:25:16;;;;;;;35.35;32.55;;;;;;;10.10;100.00;101258.53;4946566;28;20062;-87
2021/06/02 01:27:47;;;;;;;36.42;33.63;;;;;;;9.91;100.00;101249.38;4963816;28;20053;-88
2021/06/02 01:30:18;;;;;;;37.53;34.53;;;;;;;10.04;100.00;101260.09;4966466;28;20058;-88
2021/06/02 01:33:00;;;;;;;36.78;33.80;;;;;;;9.92;100.00;101253.66;4953894;28;20043;-87
2021/06/02 01:35:50;;;;;;;37.33;34.50;;;;;;;10.14;100.00;101254.50;4945644;29;20109;-87
2021/06/02 01:38:51;;;;;;;38.42;35.22;;;;;;;10.14;100.00;101256.34;4963899;28;20302;-88
2021/06/02 01:41:47;;;;;;;37.22;34.42;;;;;;;10.19;100.00;101259.22;4969397;28;20417;-87
2021/06/02 01:45:04;;;;;;;37.60;34.70;;;;;;;10.07;100.00;101267.69;4965977;28;20184;-88
2021/06/02 01:48:06;;;;;;;36.72;33.90;;;;;;;9.83;100.00;101260.09;4972588;28;20109;-88
2021/06/02 01:51:01;;;;;;;39.88;36.58;;;;;;;9.94;100.00;101259.59;4961162;28;20055;-88
2021/06/02 01:53:49;;;;;;;43.58;40.38;;;;;;;10.18;100.00;101266.38;4972859;28;20110;-89
2021/06/02 01:56:49;;;;;;;41.85;38.75;;;;;;;10.21;100.00;101259.88;4957026;29;20418;-88
2021/06/02 01:59:59;;;;;;;40.80;37.45;;;;;;;10.21;100.00;101258.03;4961300;28;20083;-88
2021/06/02 02:02:45;;;;;;;38.10;35.10;;;;;;;10.19;100.00;101259.22;4993598;23;20050;-78
2021/06/02 02:05:41;;;;;;;38.03;35.22;;;;;;;10.09;100.00;101254.25;4988906;28;20498;-80
2021/06/02 02:08:28;;;;;;;39.53;35.97;;;;;;;10.24;100.00;101257.66;4965989;28;20054;-79
2021/06/02 02:11:03;;;;;;;39.30;36.00;;;;;;;10.25;100.00;101261.94;4987369;28;20401;-80
2021/06/02 02:13:59;;;;;;;37.30;34.50;;;;;;;10.25;100.00;101264.59;4978901;28;20054;-79
2021/06/02 02:16:36;;;;;;;38.30;35.05;;;;;;;10.06;100.00;101262.59;4941730;28;20506;-79
2021/06/02 02:19:27;;;;;;;37.00;34.15;;;;;;;10.27;100.00;101264.44;4977343;28;20051;-81
2021/06/02 02:22:00;;;;;;;34.03;31.42;;;;;;;10.40;100.00;101263.75;4988445;28;20050;-78
2021/06/02 02:24:35;;;;;;;37.38;34.67;;;;;;;10.33;100.00;101261.03;4988649;28;20050;-79
2021/06/02 02:27:22;;;;;;;37.55;34.65;;;;;;;11.80;100.00;101271.50;4989859;28;20042;-79
2021/06/02 02:29:56;;;;;;;34.63;31.92;;;;;;;11.04;100.00;101271.56;4987018;28;20562;-79
2021/06/02 02:32:50;;;;;;;31.48;29.08;;;;;;;10.70;100.00;101275.00;4987822;28;20128;-79
2021/06/02 02:35:49;;;;;;;33.70;30.75;;;;;;;10.66;100.00;101276.44;4985115;28;20405;-80
2021/06/02 02:38:40;;;;;;;42.53;39.60;;;;;;;10.82;100.00;101275.31;4986074;28;20061;-80
2021/06/02 02:41:30;;;;;;;35.30;32.70;;;;;;;10.52;100.00;101271.00;4990622;28;20054;-78
2021/06/02 02:44:05;;;;;;;36.75;33.95;;;;;;;10.80;100.00;101280.81;4987729;28;20109;-78
2021/06/02 02:46:38;;;;;;;34.67;31.98;;;;;;;10.76;100.00;101272.41;4988733;28;20054;-78
2021/06/02 02:49:14;;;;;;;33.25;30.98;;;;;;;10.57;100.00;101275.75;4987793;28;20046;-77
2021/06/02 02:51:52;;;;;;;34.88;32.38;;;;;;;10.39;100.00;101284.16;4984776;28;20487;-80
2021/06/02 02:54:25;;;;;;;35.10;32.50;;;;;;;10.61;100.00;101277.00;4987907;28;20495;-77
2021/06/02 02:56:58;;;;;;;33.47;31.10;;;;;;;10.84;100.00;101284.72;4990491;28;20599;-77
2021/06/02 02:59:30;;;;;;;39.10;36.30;;;;;;;11.52;100.00;101281.44;4984894;28;20434;-77
2021/06/02 03:02:03;;;;;;;34.20;31.80;;;;;;;11.75;100.00;101273.13;4986606;28;20136;-79
2021/06/02 03:04:31;;;;;;;;;;;;;;;10.96;100.00;101280.53;4987045;28;20062;-79
2021/06/02 03:06:59;;;;;;;34.05;31.83;;;;;;;10.37;100.00;101282.72;4989421;28;20000;-78
2021/06/02 03:09:31;;;;;;;32.78;30.58;;;;;;;10.50;100.00;101278.34;4985694;28;20042;-78
2021/06/02 03:12:14;;;;;;;34.33;31.83;;;;;;;10.65;100.00;101280.06;4989238;28;20054;-79
2021/06/02 03:14:58;;;;;;;34.58;32.08;;;;;;;10.62;100.00;101285.78;4985414;28;20062;-77
2021/06/02 03:17:32;;;;;;;36.53;34.22;;;;;;;10.46;100.00;101294.84;4985898;28;20112;-77
2021/06/02 03:20:08;;;;;;;38.58;35.97;;;;;;;10.44;100.00;101295.03;4984726;28;20077;-79
2021/06/02 03:23:14;;;;;;;39.40;36.80;;;;;;;10.44;100.00;101297.72;4991401;28;20050;-79
2021/06/02 03:25:46;;;;;;;37.40;34.80;;;;;;;10.47;100.00;101301.81;4982167;28;21692;-80
2021/06/02 03:28:24;;;;;;;40.53;37.60;;;;;;;10.43;100.00;101303.19;4988613;28;20054;-82
2021/06/02 03:31:01;;;;;;;39.25;36.33;;;;;;;10.37;100.00;101303.94;4985616;28;20053;-79
2021/06/02 03:33:45;;;;;;;46.90;43.65;;;;;;;10.43;100.00;101305.84;4989596;28;20050;-79
2021/06/02 03:49:21;;;;;;;37.58;34.78;;;;;;;10.70;100.00;101313.03;4817758;27;8289803;-79
2021/06/02 03:51:53;;;;;;;36.80;34.40;;;;;;;10.46;100.00;101314.25;5107262;28;20395;-78
2021/06/02 03:54:27;;;;;;;34.80;32.50;;;;;;;10.58;100.00;101319.06;5107110;28;20529;-80
2021/06/02 03:57:16;;;;;;;34.40;32.17;;;;;;;10.65;100.00;101320.78;5106337;28;20098;-80
2021/06/02 03:59:44;;;;;;;37.00;34.40;;;;;;;10.45;100.00;101319.75;5104722;28;20047;-79
2021/06/02 04:02:20;;;;;;;36.63;33.90;;;;;;;10.54;100.00;101319.44;5102557;28;20117;-80
2021/06/02 04:05:12;;;;;;;38.85;36.15;;;;;;;10.74;100.00;101316.13;5103583;28;20043;-80
2021/06/02 04:07:45;;;;;;;39.20;36.60;;;;;;;10.66;100.00;101326.91;5106957;28;20444;-79
2021/06/02 04:10:14;;;;;;;36.85;34.17;;;;;;;10.61;100.00;101338.09;5103622;28;20064;-79
2021/06/02 04:12:51;;;;;;;36.22;33.90;;;;;;;10.79;100.00;101332.31;5106748;28;20051;-78
2021/06/02 04:15:17;;;;;;;36.75;34.35;;;;;;;10.82;100.00;101333.78;5102880;28;20036;-78
2021/06/02 04:17:49;;;;;;;37.90;35.05;;;;;;;10.63;100.00;101335.25;5106828;28;20051;-79
2021/06/02 04:20:18;;;;;;;39.17;36.40;;;;;;;10.82;100.00;101339.09;5106971;28;20050;-79
2021/06/02 04:22:48;;;;;;;37.58;35.17;;;;;;;10.80;100.00;101346.41;5105877;28;20040;-78
2021/06/02 04:25:16;;;;;;;39.58;36.88;;;;;;;10.87;100.00;101340.16;5106191;28;20052;-80
2021/06/02 04:27:46;;;;;;;42.63;39.45;;;;;;;10.93;100.00;101341.22;5106763;28;20396;-79
2021/06/02 04:30:15;;;;;;;42.38;39.53;;;;;;;10.79;100.00;101340.28;5105095;28;20068;-79
2021/06/02 04:32:43;;;;;;;42.35;39.35;;;;;;;10.75;100.00;101347.81;5107554;28;20056;-80
2021/06/02 04:35:13;;;;;;;38.38;35.78;;;;;;;10.94;100.00;101338.34;5106376;28;20039;-80
2021/06/02 04:37:41;;;;;;;35.97;33.58;;;;;;;10.72;100.00;101339.41;5105997;28;20044;-79
2021/06/02 04:40:11;;;;;;;39.95;37.50;;;;;;;10.67;100.00;101342.63;5102403;28;20722;-78
2021/06/02 04:42:38;;;;;;;40.60;37.58;;;;;;;10.74;100.00;101353.31;5103340;28;20051;-78
2021/06/02 04:45:08;;;;;;;43.60;40.50;;;;;;;10.55;100.00;101349.47;5106878;28;20408;-80
2021/06/02 04:47:35;;;;;;;42.08;39.28;;;;;;;10.59;100.00;101352.56;5110011;28;20063;-80
2021/06/02 04:50:19;;;;;;;39.22;36.33;;;;;;;10.75;100.00;101355.78;5110167;27;20073;-80
2021/06/02 04:53:28;;;;;;;39.38;36.45;;;;;;;10.47;100.00;101357.59;5111529;28;20400;-78
2021/06/02 04:56:32;;;;;;;41.67;38.88;;;;;;;10.66;100.00;101364.91;5106166;28;20472;-79
2021/06/02 04:59:29;;;;;;;38.50;35.90;;;;;;;10.69;100.00;101366.38;5110714;27;20066;-80
2021/06/02 05:02:43;;;;;;;41.05;38.25;;;;;;;10.69;100.00;101361.88;5110093;28;20047;-81
2021/06/02 05:05:43;;;;;;;36.42;34.03;;;;;;;10.58;100.00;101372.19;5111291;27;20055;-79
2021/06/02 05:08:51;;;;;;;38.97;36.13;;;;;;;10.54;100.00;101372.56;5072259;28;20047;-79
2021/06/02 05:12:08;;;;;;;39.50;36.70;;;;;;;10.74;100.00;101377.22;5104436;27;20414;-78
2021/06/02 05:15:16;;;;;;;42.28;39.42;;;;;;;14.01;100.00;101390.34;5106203;27;20039;-78
2021/06/02 05:18:08;;;;;;;37.13;34.53;;;;;;;11.18;100.00;101378.81;5105384;28;20065;-78
2021/06/02 05:24:46;;;;;;;40.33;36.85;;;;;;;10.95;100.00;101387.88;5110311;27;20456;-78
2021/06/02 05:27:44;;;;;;;37.65;34.63;;;;;;;10.99;100.00;101391.78;5106952;28;20511;-79
2021/06/02 05:30:45;;;;;;;43.75;40.75;;;;;;;11.23;100.00;101403.00;5105582;28;20048;-78
2021/06/02 05:33:58;;;;;;;39.30;36.70;;;;;;;11.15;100.00;101406.63;5102832;27;20496;-79
2021/06/02 05:37:00;;;;;;;39.70;37.00;;;;;;;11.33;100.00;101408.78;5106670;28;20040;-78
2021/06/02 05:40:02;;;;;;;42.50;39.47;;;;;;;11.49;100.00;101410.31;5108357;28;20047;-79
2021/06/02 05:43:00;;;;;;;45.80;42.60;;;;;;;11.53;100.00;101421.38;5101823;28;20483;-79
2021/06/02 05:46:13;;;;;;;38.65;35.95;;;;;;;11.51;100.00;101420.78;5107230;27;20453;-79
2021/06/02 05:49:11;;;;;;;48.03;44.63;;;;;;;11.49;100.00;101420.97;5100475;28;20120;-81
2021/06/02 05:51:52;;;;;;;41.83;38.65;;;;;;;11.50;100.00;101427.09;5107974;28;20055;-79
2021/06/02 05:55:04;;;;;;;46.67;43.38;;;;;;;12.25;100.00;101428.13;5101298;27;20044;-81
2021/06/02 05:58:03;;;;;;;50.58;47.08;;;;;;;11.52;100.00;101419.75;5102860;28;20062;-81
2021/06/02 06:00:56;;;;;;;50.45;46.90;;;;;;;11.52;100.00;101419.75;5102985;27;20052;-80
2021/06/02 06:04:03;;;;;;;44.13;41.13;;;;;;;11.39;100.00;101420.50;5106700;28;20043;-81
2021/06/02 06:06:41;;;;;;;48.55;44.92;;;;;;;11.86;100.00;101427.78;5101925;28;20040;-79
2021/06/02 06:09:55;;;;;;;40.78;37.75;;;;;;;11.80;100.00;101419.72;5106903;27;20058;-79
2021/06/02 06:12:59;;;;;;;40.42;37.55;;;;;;;11.93;100.00;101429.66;5101756;28;20056;-80
2021/06/02 06:16:05;;;;;;;39.45;36.75;;;;;;;13.01;100.00;101426.06;5102189;28;20090;-81
2021/06/02 06:18:53;;;;;;;37.20;34.50;;;;;;;11.96;100.00;101429.25;5103995;28;20047;-82
2021/06/02 06:21:49;;;;;;;40.35;37.55;;;;;;;11.57;100.00;101428.00;5100091;28;20062;-81
2021/06/02 06:24:21;;;;;;;42.85;39.75;;;;;;;11.65;100.00;101436.66;5103306;28;20050;-79
2021/06/02 06:26:54;;;;;;;42.53;39.53;;;;;;;11.87;100.00;101447.22;5102951;28;20059;-79
2021/06/02 06:29:29;;;;;;;46.17;42.70;;;;;;;11.87;100.00;101442.72;5098208;27;20063;-80
2021/06/02 06:31:58;;;;;;;42.45;39.45;;;;;;;11.71;100.00;101445.69;5106378;27;20054;-79
2021/06/02 06:34:27;;;;;;;41.15;38.17;;;;;;;11.70;100.00;101441.38;5100326;28;20052;-80
2021/06/02 06:36:57;;;;;;;43.42;40.42;;;;;;;12.23;100.00;101443.50;5119678;22;20113;-87
2021/06/02 06:39:32;;;;;;;40.53;37.60;;;;;;;12.23;100.00;101432.88;5090291;28;20084;-88
2021/06/02 06:42:00;;;;;;;39.85;37.25;;;;;;;12.24;100.00;101437.16;5101015;28;20055;-87
2021/06/02 06:44:28;;;;;;;42.50;39.60;;;;;;;12.01;100.00;101440.13;5097731;28;20051;-86
2021/06/02 06:46:56;;;;;;;42.88;39.97;;;;;;;12.18;100.00;101449.41;5099455;28;20528;-85
2021/06/02 06:49:24;;;;;;;41.08;37.97;;;;;;;12.03;100.00;101446.91;5099006;28;20101;-86
2021/06/02 06:51:53;;;;;;;51.03;47.33;;;;;;;12.30;100.00;101444.34;5100347;28;20505;-86
2021/06/02 06:54:22;;;;;;;42.20;39.08;;;;;;;12.09;100.00;101447.94;5103231;28;20039;-87
2021/06/02 06:56:50;;;;;;;39.85;36.95;;;;;;;12.11;100.00;101438.75;5100013;28;20043;-87
2021/06/02 06:59:18;;;;;;;41.55;38.45;;;;;;;12.24;100.00;101448.63;5098134;28;20048;-87
2021/06/02 07:01:45;;;;;;;40.38;37.38;;;;;;;12.33;100.00;101442.09;5097736;28;20051;-86
2021/06/02 07:04:12;;;;;;;37.22;34.63;;;;;;;12.16;100.00;101446.13;5096958;28;20416;-86
2021/06/02 07:06:39;;;;;;;44.20;41.10;;;;;;;12.30;100.00;101436.34;5096472;28;20054;-87
2021/06/02 07:09:06;;;;;;;40.13;37.03;;;;;;;12.41;100.00;101441.13;5099597;28;20561;-86
2021/06/02 07:11:37;;;;;;;42.35;39.35;;;;;;;12.98;100.00;101436.28;5100223;28;20547;-86
2021/06/02 07:14:04;;;;;;;37.72;35.03;;;;;;;12.49;100.00;101429.44;5100396;28;20136;-85
2021/06/02 07:16:35;;;;;;;40.20;37.30;;;;;;;12.67;100.00;101424.34;5098359;28;20071;-85
2021/06/02 07:19:02;;;;;;;39.47;36.70;;;;;;;12.44;100.00;101411.41;5102467;28;20489;-87
2021/06/02 07:21:30;;;;;;;41.83;38.72;;;;;;;12.67;100.00;101411.03;5099937;28;20047;-86
2021/06/02 07:23:57;;;;;;;49.15;45.42;;;;;;;12.83;100.00;101409.84;5099684;28;20043;-86
2021/06/02 07:26:24;;;;;;;37.65;34.75;;;;;;;12.97;100.00;101416.81;5101110;28;20516;-86
2021/06/02 07:28:52;;;;;;;40.20;37.10;;;;;;;12.91;100.00;101416.81;5100827;28;20047;-86
2021/06/02 07:31:18;;;;;;;46.42;43.13;;;;;;;14.39;100.00;101414.44;5095269;28;20040;-87
2021/06/02 07:33:45;;;;;;;38.40;35.90;;;;;;;14.97;100.00;101403.56;5103450;28;20052;-86
2021/06/02 07:36:11;;;;;;;36.67;34.58;;;;;;;14.81;100.00;101394.25;5100010;28;20417;-87
2021/06/02 07:38:39;;;;;;;37.80;35.20;;;;;;;14.05;100.00;101400.41;5097805;28;20059;-86
2021/06/02 07:41:06;;;;;;;37.88;35.47;;;;;;;14.63;100.00;101403.00;5099660;28;20052;-87
2021/06/02 07:43:32;;;;;;;34.63;32.42;;;;;;;13.87;100.00;101405.63;5098881;28;20040;-86
2021/06/02 07:46:00;;;;;;;37.45;35.10;;;;;;;14.04;100.00;101395.28;5101163;28;20410;-86
2021/06/02 07:48:27;;;;;;;38.95;36.65;;;;;;;15.26;100.00;101390.56;5100667;28;20052;-87
2021/06/02 07:50:54;;;;;;;39.55;37.15;;;;;;;14.71;100.00;101393.09;5098225;28;20511;-87
2021/06/02 07:53:20;;;;;;;37.80;35.50;;;;;;;14.49;100.00;101398.72;5095152;28;20055;-87
2021/06/02 07:55:46;;;;;;;35.00;33.00;;;;;;;14.77;100.00;101398.41;5099857;28;20044;-86
2021/06/02 07:58:13;;;;;;;34.72;32.72;;;;;;;14.82;100.00;101392.38;5100472;28;20055;-87
2021/06/02 08:00:46;;;;;;;37.20;35.20;;;;;;;15.14;100.00;101395.81;5098003;28;20096;-87
2021/06/02 08:03:14;;;;;;;38.17;36.17;;;;;;;15.39;100.00;101393.13;5094985;28;20044;-86
2021/06/02 08:05:40;;;;;;;36.97;34.97;;;;;;;15.35;100.00;101386.56;5095349;28;20124;-89
2021/06/02 08:08:08;;;;;;;35.72;33.72;;;;;;;15.32;100.00;101379.00;5098758;28;20133;-86
2021/06/02 08:10:34;;;;;;;33.78;31.95;;;;;;;15.26;100.00;101383.38;5100824;28;20056;-88
2021/06/02 08:13:02;;;;;;;34.45;32.65;;;;;;;14.76;100.00;101386.03;5097583;28;20050;-87
2021/06/02 08:15:28;;;;;;;34.40;32.50;;;;;;;15.07;100.00;101393.22;5094880;28;20063;-86
2021/06/02 08:17:55;;;;;;;36.28;34.28;;;;;;;14.79;100.00;101384.78;5098865;28;20050;-85
2021/06/02 08:20:24;;;;;;;33.80;32.00;;;;;;;15.09;100.00;101383.09;5101977;28;20056;-87
2021/06/02 08:22:50;;;;;;;37.58;35.58;;;;;;;15.40;100.00;101391.25;5094665;28;20111;-86
2021/06/02 08:25:17;;;;;;;35.70;33.80;;;;;;;15.04;100.00;101390.16;5103756;28;20040;-90
2021/06/02 08:27:45;;;;;;;35.10;33.40;;;;;;;14.87;100.00;101389.88;5101844;28;20059;-85
2021/06/02 08:30:13;;;;;;;35.60;33.80;;;;;;;15.33;100.00;101394.00;5100248;28;20051;-86
2021/06/02 08:32:40;;;;;;;33.97;32.17;;;;;;;15.59;100.00;101392.91;5098511;28;20044;-87
2021/06/02 08:35:08;;;;;;;34.08;32.17;;;;;;;15.00;100.00;101394.28;5105749;28;20051;-86
2021/06/02 08:37:36;;;;;;;39.25;37.00;;;;;;;14.84;100.00;101393.81;5101629;28;20509;-87
2021/06/02 08:40:04;;;;;;;34.17;32.28;;;;;;;14.58;100.00;101402.00;5099337;28;20036;-89
2021/06/02 08:42:30;;;;;;;36.00;34.00;;;;;;;14.99;100.00;101401.50;5099563;28;20047;-86
2021/06/02 08:44:57;;;;;;;37.10;34.78;;;;;;;15.28;100.00;101397.34;5106363;28;20048;-87
2021/06/02 08:47:23;;;;;;;36.17;33.85;;;;;;;15.60;100.00;101394.53;5097278;28;20388;-87
2021/06/02 08:49:49;;;;;;;35.08;33.03;;;;;;;15.86;100.00;101385.44;5100032;28;20524;-87
2021/06/02 08:52:16;;;;;;;34.90;33.00;;;;;;;16.18;100.00;101386.03;5098218;28;20051;-88
2021/06/02 08:54:44;;;;;;;32.53;30.73;;;;;;;15.90;100.00;101383.13;5097315;28;20054;-87
2021/06/02 08:57:11;;;;;;;30.45;28.65;;;;;;;16.74;100.00;101367.09;5099709;28;20044;-87
2021/06/02 08:59:37;;;;;;;32.55;30.60;;;;;;;16.61;100.00;101371.63;5102485;28;20051;-86
2021/06/02 09:02:04;;;;;;;33.28;31.38;;;;;;;16.09;100.00;101371.31;5101830;28;20056;-86
2021/06/02 09:04:33;;;;;;;30.98;29.17;;;;;;;16.01;100.00;101372.47;5103362;28;20052;-86
2021/06/02 09:07:03;;;;;;;31.13;29.33;;;;;;;16.41;100.00;101363.88;5104277;28;20062;-86
2021/06/02 09:09:30;;;;;;;32.88;30.98;;;;;;;16.26;100.00;101371.50;5099734;28;20048;-85
2021/06/02 09:12:04;;;;;;;31.38;29.48;;;;;;;16.11;100.00;101369.25;5107614;28;20058;-87
2021/06/02 09:14:32;;;;;;;30.05;28.35;;;;;;;15.55;100.00;101371.13;5107241;28;20054;-86
2021/06/02 09:17:02;;;;;;;30.83;29.13;;;;;;;15.67;100.00;101362.34;5101078;28;20406;-86
2021/06/02 09:19:46;;;;;;;33.40;31.60;;;;;;;15.72;100.00;101371.38;5101834;28;20044;-87
2021/06/02 09:22:15;;;;;;;28.92;27.23;;;;;;;15.62;100.00;101364.88;5102799;28;20100;-87
2021/06/02 09:24:53;;;;;;;30.70;28.80;;;;;;;16.10;100.00;101364.13;5103690;28;20054;-87
2021/06/02 09:27:42;;;;;;;28.75;26.95;;;;;;;15.17;100.00;101365.16;5099374;28;20552;-87
2021/06/02 09:30:10;;;;;;;28.80;27.00;;;;;;;16.15;100.00;101367.72;5097447;28;20047;-87
2021/06/02 09:32:48;;;;;;;30.02;28.13;;;;;;;16.60;100.00;101348.50;5101138;28;20101;-87
2021/06/02 09:35:14;;;;;;;29.42;27.63;;;;;;;16.19;100.00;101355.53;5097926;28;20254;-86
2021/06/02 09:37:57;;;;;;;29.80;27.85;;;;;;;16.65;100.00;101350.53;5093804;28;20052;-87
2021/06/02 09:40:27;;;;;;;31.42;29.42;;;;;;;16.37;100.00;101351.13;5104270;28;20174;-87
2021/06/02 09:42:58;;;;;;;29.58;27.60;;;;;;;15.76;100.00;101358.34;5103409;28;20587;-86
2021/06/02 09:45:27;;;;;;;29.67;27.88;;;;;;;15.70;100.00;101360.09;5095613;28;20520;-87
2021/06/02 09:53:20;;;;;;;30.40;28.42;;;;;;;16.71;100.00;101360.31;5097371;28;20116;-87
2021/06/02 09:55:46;;;;;;;30.58;28.85;;;;;;;16.62;100.00;101354.47;5097341;27;20051;-87
2021/06/02 09:58:15;;;;;;;30.08;28.35;;;;;;;16.82;100.00;101353.34;5095831;28;20203;-87
2021/06/02 10:00:43;;;;;;;29.52;28.02;;;;;;;17.24;100.00;101353.25;5101418;27;20425;-87
2021/06/02 10:03:12;;;;;;;31.45;29.85;;;;;;;16.99;100.00;101354.31;5091685;28;20044;-87
2021/06/02 10:05:39;;;;;;;34.08;32.22;;;;;;;16.42;100.00;101356.63;5094843;28;20071;-87
2021/06/02 10:08:07;;;;;;;32.33;30.73;;;;;;;16.43;100.00;101345.69;5093514;28;20044;-85
2021/06/02 10:10:34;;;;;;;35.75;33.72;;;;;;;16.14;100.00;101360.75;5094104;28;20047;-88
2021/06/02 10:13:04;;;;;;;32.30;30.60;;;;;;;16.35;100.00;101359.41;5098341;27;20391;-87
2021/06/02 10:15:35;;;;;;;32.15;30.52;;;;;;;16.45;100.00;101356.19;5095501;28;20050;-88
2021/06/02 10:18:02;;;;;;;34.17;32.17;;;;;;;16.49;100.00;101363.53;5093452;28;20048;-88
2021/06/02 10:20:28;;;;;;;32.50;30.50;;;;;;;16.26;100.00;101360.78;5092805;28;20044;-88
2021/06/02 10:22:58;;;;;;;35.25;33.15;;;;;;;16.68;100.00;101356.22;5094131;28;20059;-87
2021/06/02 10:25:26;;;;;;;34.83;32.72;;;;;;;16.89;100.00;101360.25;5093622;28;20467;-88
2021/06/02 10:27:54;;;;;;;33.80;31.88;;;;;;;16.45;100.00;101354.31;5098379;28;20056;-88
2021/06/02 10:30:29;;;;;;;34.15;32.35;;;;;;;16.51;100.00;101352.56;5090972;28;20040;-88
2021/06/02 10:32:56;;;;;;;37.17;35.38;;;;;;;16.48;100.00;101348.50;5101434;27;20043;-87
2021/06/02 10:35:23;;;;;;;34.40;32.58;;;;;;;16.00;100.00;101357.41;5094151;28;20066;-88
2021/06/02 10:37:53;;;;;;;35.17;33.28;;;;;;;16.21;100.00;101350.75;5100703;28;20439;-88
2021/06/02 10:40:21;;;;;;;34.15;32.42;;;;;;;16.53;100.00;101349.69;5093485;28;20043;-87
2021/06/02 10:42:57;;;;;;;33.80;32.00;;;;;;;16.57;100.00;101354.34;5100441;28;20204;-88
2021/06/02 10:45:27;;;;;;;36.83;34.72;;;;;;;16.05;100.00;101356.75;5096824;28;20047;-86
2021/06/02 10:48:03;;;;;;;35.22;33.25;;;;;;;16.18;100.00;101367.28;5093699;28;20051;-86
2021/06/02 10:50:35;;;;;;;32.17;30.38;;;;;;;16.24;100.00;101368.22;5100239;28;20051;-87
2021/06/02 10:53:03;;;;;;;34.28;32.38;;;;;;;16.22;100.00;101364.97;5095141;28;20054;-86
2021/06/02 10:55:38;;;;;;;31.17;29.48;;;;;;;15.74;100.00;101365.81;5102720;28;20055;-87
2021/06/02 10:58:32;;;;;;;31.52;29.92;;;;;;;15.76;100.00;101371.72;5101073;28;20048;-87
2021/06/02 11:01:14;;;;;;;31.73;30.13;;;;;;;15.88;100.00;101369.13;5093266;28;20130;-87
2021/06/02 11:03:43;;;;;;;33.10;31.40;;;;;;;15.98;100.00;101372.91;5095730;28;20459;-88
2021/06/02 11:06:32;;;;;;;30.17;28.67;;;;;;;15.95;100.00;101377.91;5095157;28;20421;-87
2021/06/02 11:09:16;;;;;;;33.38;31.60;;;;;;;15.49;100.00;101363.16;5105063;28;20496;-86
2021/06/02 11:11:45;;;;;;;32.47;30.77;;;;;;;15.70;100.00;101373.47;5098431;28;20048;-86
2021/06/02 11:14:29;;;;;;;33.92;32.13;;;;;;;15.63;100.00;101370.00;5096594;28;20048;-89
2021/06/02 11:17:00;;;;;;;34.25;32.63;;;;;;;15.69;100.00;101371.81;5098434;28;20056;-86
2021/06/02 11:19:30;;;;;;;31.85;30.25;;;;;;;15.58;100.00;101369.84;5099165;28;20096;-89
2021/06/02 11:22:02;;;;;;;32.45;30.85;;;;;;;15.51;100.00;101369.09;5091215;28;20048;-87
2021/06/02 11:24:45;;;;;;;31.92;30.33;;;;;;;15.70;100.00;101378.81;5102382;28;20437;-86
2021/06/02 11:27:37;;;;;;;29.00;27.50;;;;;;;15.64;100.00;101374.31;5099300;28;20048;-87
2021/06/02 11:30:22;;;;;;;29.38;27.77;;;;;;;15.46;100.00;101371.63;5101110;28;20048;-90
2021/06/02 11:33:09;;;;;;;30.67;29.17;;;;;;;15.68;100.00;101372.06;5098393;28;20104;-87
2021/06/02 11:36:04;;;;;;;34.20;32.50;;;;;;;15.72;100.00;101379.41;5095500;28;20504;-86
2021/06/02 11:38:31;;;;;;;34.80;33.10;;;;;;;15.43;100.00;101377.44;5093118;28;20056;-87
2021/06/02 11:40:57;;;;;;;35.20;33.50;;;;;;;15.71;100.00;101380.44;5097730;28;20047;-89
2021/06/02 11:43:24;;;;;;;31.60;29.92;;;;;;;15.55;100.00;101379.16;5098746;28;20394;-89
2021/06/02 11:45:52;;;;;;;36.58;34.55;;;;;;;15.63;100.00;101374.53;5091805;28;20131;-87
2021/06/02 11:48:24;;;;;;;36.92;35.13;;;;;;;15.64;100.00;101376.16;5095843;28;20059;-87
2021/06/02 11:50:51;;;;;;;34.13;32.33;;;;;;;15.66;100.00;101374.91;5097451;28;20044;-87
2021/06/02 11:53:19;;;;;;;35.63;33.92;;;;;;;15.80;100.00;101375.63;5097959;28;20570;-85
2021/06/02 11:55:45;;;;;;;32.90;31.30;;;;;;;15.34;100.00;101377.72;5094966;28;20060;-86
2021/06/02 11:58:12;;;;;;;34.00;32.40;;;;;;;15.74;100.00;101371.16;5094836;28;20967;-87
2021/06/02 12:00:38;;;;;;;33.95;32.35;;;;;;;15.78;100.00;101372.34;5099860;28;20425;-87
2021/06/02 12:03:06;;;;;;;34.83;33.13;;;;;;;15.53;100.00;101372.41;5103867;28;20051;-86